sensor_id;sensor_type;location;lat;lon;timestamp;P1;durP1;ratioP1;P2;durP2;ratioP2
74245;SDS011;62601;51.044;13.788;2024-01-27T00:02:20;2.13;;;0.98;;
74245;SDS011;62601;51.044;13.788;2024-01-27T00:04:41;9.10;;;1.38;;
74245;SDS011;62601;51.044;13.788;2024-01-27T00:07:02;5.72;;;1.27;;
74245;SDS011;62601;51.044;13.788;2024-01-27T00:09:24;4.68;;;1.45;;
74245;SDS011;62601;51.044;13.788;2024-01-27T00:11:45;6.03;;;1.05;;
74245;SDS011;62601;51.044;13.788;2024-01-27T00:14:07;9.18;;;1.27;;
74245;SDS011;62601;51.044;13.788;2024-01-27T00:16:27;6.60;;;1.35;;
74245;SDS011;62601;51.044;13.788;2024-01-27T00:18:50;3.50;;;1.13;;
74245;SDS011;62601;51.044;13.788;2024-01-27T00:21:10;10.18;;;1.40;;
74245;SDS011;62601;51.044;13.788;2024-01-27T00:23:30;2.53;;;1.00;;
74245;SDS011;62601;51.044;13.788;2024-01-27T00:25:52;2.13;;;0.93;;
74245;SDS011;62601;51.044;13.788;2024-01-27T00:28:12;7.25;;;1.73;;
74245;SDS011;62601;51.044;13.788;2024-01-27T00:30:33;5.22;;;1.25;;
74245;SDS011;62601;51.044;13.788;2024-01-27T00:32:53;9.40;;;1.17;;
74245;SDS011;62601;51.044;13.788;2024-01-27T00:35:16;1.63;;;1.00;;
74245;SDS011;62601;51.044;13.788;2024-01-27T00:37:36;4.13;;;1.23;;
74245;SDS011;62601;51.044;13.788;2024-01-27T00:39:58;6.13;;;1.20;;
74245;SDS011;62601;51.044;13.788;2024-01-27T00:42:18;5.05;;;1.20;;
74245;SDS011;62601;51.044;13.788;2024-01-27T00:44:39;3.42;;;1.10;;
74245;SDS011;62601;51.044;13.788;2024-01-27T00:46:59;6.82;;;1.35;;
74245;SDS011;62601;51.044;13.788;2024-01-27T00:49:21;4.97;;;1.15;;
74245;SDS011;62601;51.044;13.788;2024-01-27T00:51:42;2.88;;;1.52;;
74245;SDS011;62601;51.044;13.788;2024-01-27T00:54:03;5.38;;;1.13;;
74245;SDS011;62601;51.044;13.788;2024-01-27T00:56:23;1.85;;;1.00;;
74245;SDS011;62601;51.044;13.788;2024-01-27T00:58:45;6.60;;;1.67;;
74245;SDS011;62601;51.044;13.788;2024-01-27T01:01:06;4.93;;;1.20;;
74245;SDS011;62601;51.044;13.788;2024-01-27T01:03:27;6.18;;;1.00;;
74245;SDS011;62601;51.044;13.788;2024-01-27T01:05:49;5.60;;;1.15;;
74245;SDS011;62601;51.044;13.788;2024-01-27T01:08:09;7.25;;;1.20;;
74245;SDS011;62601;51.044;13.788;2024-01-27T01:10:30;5.88;;;1.70;;
74245;SDS011;62601;51.044;13.788;2024-01-27T01:12:51;5.60;;;1.20;;
74245;SDS011;62601;51.044;13.788;2024-01-27T01:15:13;3.28;;;1.10;;
74245;SDS011;62601;51.044;13.788;2024-01-27T01:17:33;8.68;;;1.55;;
74245;SDS011;62601;51.044;13.788;2024-01-27T01:19:54;5.05;;;3.25;;
74245;SDS011;62601;51.044;13.788;2024-01-27T01:22:16;4.10;;;1.23;;
74245;SDS011;62601;51.044;13.788;2024-01-27T01:24:36;9.98;;;2.03;;
74245;SDS011;62601;51.044;13.788;2024-01-27T01:26:57;5.25;;;1.33;;
74245;SDS011;62601;51.044;13.788;2024-01-27T01:29:19;2.25;;;1.15;;
74245;SDS011;62601;51.044;13.788;2024-01-27T01:31:41;7.30;;;1.50;;
74245;SDS011;62601;51.044;13.788;2024-01-27T01:34:02;9.40;;;1.92;;
74245;SDS011;62601;51.044;13.788;2024-01-27T01:36:24;3.40;;;1.30;;
74245;SDS011;62601;51.044;13.788;2024-01-27T01:38:45;6.68;;;1.55;;
74245;SDS011;62601;51.044;13.788;2024-01-27T01:41:06;4.85;;;1.00;;
74245;SDS011;62601;51.044;13.788;2024-01-27T01:43:28;3.22;;;1.42;;
74245;SDS011;62601;51.044;13.788;2024-01-27T01:45:49;3.05;;;1.67;;
74245;SDS011;62601;51.044;13.788;2024-01-27T01:48:11;4.97;;;1.20;;
74245;SDS011;62601;51.044;13.788;2024-01-27T01:50:31;5.40;;;1.38;;
74245;SDS011;62601;51.044;13.788;2024-01-27T01:52:53;4.30;;;1.27;;
74245;SDS011;62601;51.044;13.788;2024-01-27T01:55:14;2.83;;;1.73;;
74245;SDS011;62601;51.044;13.788;2024-01-27T01:57:35;3.25;;;1.40;;
74245;SDS011;62601;51.044;13.788;2024-01-27T01:59:57;3.40;;;1.42;;
74245;SDS011;62601;51.044;13.788;2024-01-27T02:02:18;6.38;;;1.35;;
74245;SDS011;62601;51.044;13.788;2024-01-27T02:04:40;6.50;;;1.83;;
74245;SDS011;62601;51.044;13.788;2024-01-27T02:07:02;3.60;;;0.90;;
74245;SDS011;62601;51.044;13.788;2024-01-27T02:09:23;4.22;;;1.55;;
74245;SDS011;62601;51.044;13.788;2024-01-27T02:11:45;4.60;;;1.20;;
74245;SDS011;62601;51.044;13.788;2024-01-27T02:14:05;5.03;;;2.17;;
74245;SDS011;62601;51.044;13.788;2024-01-27T02:16:27;5.40;;;1.33;;
74245;SDS011;62601;51.044;13.788;2024-01-27T02:18:49;8.13;;;1.40;;
74245;SDS011;62601;51.044;13.788;2024-01-27T02:21:09;3.83;;;1.10;;
74245;SDS011;62601;51.044;13.788;2024-01-27T02:23:30;9.02;;;1.30;;
74245;SDS011;62601;51.044;13.788;2024-01-27T02:25:52;7.78;;;1.67;;
74245;SDS011;62601;51.044;13.788;2024-01-27T02:28:13;8.30;;;1.63;;
74245;SDS011;62601;51.044;13.788;2024-01-27T02:30:35;5.30;;;1.50;;
74245;SDS011;62601;51.044;13.788;2024-01-27T02:32:55;4.70;;;1.30;;
74245;SDS011;62601;51.044;13.788;2024-01-27T02:35:17;2.65;;;1.10;;
74245;SDS011;62601;51.044;13.788;2024-01-27T02:37:38;5.80;;;1.50;;
74245;SDS011;62601;51.044;13.788;2024-01-27T02:39:58;5.05;;;1.10;;
74245;SDS011;62601;51.044;13.788;2024-01-27T02:42:20;6.28;;;1.20;;
74245;SDS011;62601;51.044;13.788;2024-01-27T02:44:41;6.63;;;1.60;;
74245;SDS011;62601;51.044;13.788;2024-01-27T02:47:03;7.18;;;1.27;;
74245;SDS011;62601;51.044;13.788;2024-01-27T02:49:23;4.10;;;1.95;;
74245;SDS011;62601;51.044;13.788;2024-01-27T02:51:44;3.65;;;1.15;;
74245;SDS011;62601;51.044;13.788;2024-01-27T02:54:06;5.43;;;2.20;;
74245;SDS011;62601;51.044;13.788;2024-01-27T02:56:26;7.15;;;1.17;;
74245;SDS011;62601;51.044;13.788;2024-01-27T02:58:47;6.50;;;1.42;;
74245;SDS011;62601;51.044;13.788;2024-01-27T03:01:09;6.20;;;1.63;;
74245;SDS011;62601;51.044;13.788;2024-01-27T03:03:29;5.80;;;1.60;;
74245;SDS011;62601;51.044;13.788;2024-01-27T03:05:49;10.35;;;1.77;;
74245;SDS011;62601;51.044;13.788;2024-01-27T03:08:10;11.80;;;2.03;;
74245;SDS011;62601;51.044;13.788;2024-01-27T03:10:31;7.80;;;1.50;;
74245;SDS011;62601;51.044;13.788;2024-01-27T03:12:53;4.95;;;1.50;;
74245;SDS011;62601;51.044;13.788;2024-01-27T03:15:13;4.53;;;1.35;;
74245;SDS011;62601;51.044;13.788;2024-01-27T03:17:34;8.40;;;1.77;;
74245;SDS011;62601;51.044;13.788;2024-01-27T03:19:54;8.13;;;1.90;;
74245;SDS011;62601;51.044;13.788;2024-01-27T03:22:16;4.57;;;1.95;;
74245;SDS011;62601;51.044;13.788;2024-01-27T03:24:37;9.10;;;1.80;;
74245;SDS011;62601;51.044;13.788;2024-01-27T03:26:59;10.88;;;2.00;;
74245;SDS011;62601;51.044;13.788;2024-01-27T03:29:20;8.60;;;1.67;;
74245;SDS011;62601;51.044;13.788;2024-01-27T03:31:40;7.68;;;1.50;;
74245;SDS011;62601;51.044;13.788;2024-01-27T03:34:02;5.78;;;1.60;;
74245;SDS011;62601;51.044;13.788;2024-01-27T03:36:25;10.05;;;1.50;;
74245;SDS011;62601;51.044;13.788;2024-01-27T03:38:46;8.50;;;1.77;;
74245;SDS011;62601;51.044;13.788;2024-01-27T03:41:07;7.18;;;2.00;;
74245;SDS011;62601;51.044;13.788;2024-01-27T03:43:28;6.40;;;1.60;;
74245;SDS011;62601;51.044;13.788;2024-01-27T03:45:49;8.13;;;1.90;;
74245;SDS011;62601;51.044;13.788;2024-01-27T03:48:11;5.43;;;1.80;;
74245;SDS011;62601;51.044;13.788;2024-01-27T03:50:35;4.07;;;1.42;;
74245;SDS011;62601;51.044;13.788;2024-01-27T03:52:57;8.57;;;1.35;;
74245;SDS011;62601;51.044;13.788;2024-01-27T03:55:18;12.27;;;1.80;;
74245;SDS011;62601;51.044;13.788;2024-01-27T03:57:40;5.90;;;1.33;;
74245;SDS011;62601;51.044;13.788;2024-01-27T04:00:01;10.75;;;1.65;;
74245;SDS011;62601;51.044;13.788;2024-01-27T04:02:21;9.80;;;1.90;;
74245;SDS011;62601;51.044;13.788;2024-01-27T04:04:43;7.70;;;1.42;;
74245;SDS011;62601;51.044;13.788;2024-01-27T04:07:03;7.03;;;1.65;;
74245;SDS011;62601;51.044;13.788;2024-01-27T04:09:23;7.32;;;1.60;;
74245;SDS011;62601;51.044;13.788;2024-01-27T04:11:44;13.70;;;2.33;;
74245;SDS011;62601;51.044;13.788;2024-01-27T04:14:04;7.63;;;1.70;;
74245;SDS011;62601;51.044;13.788;2024-01-27T04:16:26;5.70;;;1.45;;
74245;SDS011;62601;51.044;13.788;2024-01-27T04:18:47;9.18;;;1.95;;
74245;SDS011;62601;51.044;13.788;2024-01-27T04:21:08;7.85;;;1.25;;
74245;SDS011;62601;51.044;13.788;2024-01-27T04:23:30;4.82;;;1.48;;
74245;SDS011;62601;51.044;13.788;2024-01-27T04:25:51;5.78;;;1.52;;
74245;SDS011;62601;51.044;13.788;2024-01-27T04:28:13;7.13;;;1.70;;
74245;SDS011;62601;51.044;13.788;2024-01-27T04:30:33;7.00;;;1.70;;
74245;SDS011;62601;51.044;13.788;2024-01-27T04:32:53;5.47;;;1.30;;
74245;SDS011;62601;51.044;13.788;2024-01-27T04:35:13;4.63;;;1.25;;
74245;SDS011;62601;51.044;13.788;2024-01-27T04:37:33;7.85;;;1.45;;
74245;SDS011;62601;51.044;13.788;2024-01-27T04:39:53;7.22;;;1.55;;
74245;SDS011;62601;51.044;13.788;2024-01-27T04:42:13;8.98;;;1.45;;
74245;SDS011;62601;51.044;13.788;2024-01-27T04:44:33;8.68;;;1.65;;
74245;SDS011;62601;51.044;13.788;2024-01-27T04:46:53;6.45;;;1.65;;
74245;SDS011;62601;51.044;13.788;2024-01-27T04:49:14;7.75;;;2.03;;
74245;SDS011;62601;51.044;13.788;2024-01-27T04:51:34;5.78;;;1.35;;
74245;SDS011;62601;51.044;13.788;2024-01-27T04:53:54;4.88;;;1.20;;
74245;SDS011;62601;51.044;13.788;2024-01-27T04:56:14;11.82;;;2.15;;
74245;SDS011;62601;51.044;13.788;2024-01-27T04:58:34;7.10;;;1.27;;
74245;SDS011;62601;51.044;13.788;2024-01-27T05:00:54;11.80;;;2.00;;
74245;SDS011;62601;51.044;13.788;2024-01-27T05:03:14;7.05;;;1.60;;
74245;SDS011;62601;51.044;13.788;2024-01-27T05:05:35;6.43;;;1.60;;
74245;SDS011;62601;51.044;13.788;2024-01-27T05:07:55;4.05;;;1.35;;
74245;SDS011;62601;51.044;13.788;2024-01-27T05:10:15;8.63;;;2.15;;
74245;SDS011;62601;51.044;13.788;2024-01-27T05:12:35;4.50;;;1.40;;
74245;SDS011;62601;51.044;13.788;2024-01-27T05:14:55;5.75;;;1.10;;
74245;SDS011;62601;51.044;13.788;2024-01-27T05:17:16;9.48;;;1.70;;
74245;SDS011;62601;51.044;13.788;2024-01-27T05:19:36;13.20;;;2.28;;
74245;SDS011;62601;51.044;13.788;2024-01-27T05:21:56;4.22;;;1.10;;
74245;SDS011;62601;51.044;13.788;2024-01-27T05:24:16;8.73;;;1.70;;
74245;SDS011;62601;51.044;13.788;2024-01-27T05:26:36;9.38;;;2.08;;
74245;SDS011;62601;51.044;13.788;2024-01-27T05:28:56;7.25;;;1.80;;
74245;SDS011;62601;51.044;13.788;2024-01-27T05:31:17;4.63;;;1.67;;
74245;SDS011;62601;51.044;13.788;2024-01-27T05:33:38;4.43;;;1.70;;
74245;SDS011;62601;51.044;13.788;2024-01-27T05:35:58;7.80;;;1.60;;
74245;SDS011;62601;51.044;13.788;2024-01-27T05:38:18;17.15;;;2.42;;
74245;SDS011;62601;51.044;13.788;2024-01-27T05:40:38;4.53;;;1.30;;
74245;SDS011;62601;51.044;13.788;2024-01-27T05:42:58;10.40;;;1.98;;
74245;SDS011;62601;51.044;13.788;2024-01-27T05:45:19;9.35;;;1.67;;
74245;SDS011;62601;51.044;13.788;2024-01-27T05:47:39;7.22;;;2.30;;
74245;SDS011;62601;51.044;13.788;2024-01-27T05:49:59;9.18;;;1.45;;
74245;SDS011;62601;51.044;13.788;2024-01-27T05:52:19;9.93;;;1.67;;
74245;SDS011;62601;51.044;13.788;2024-01-27T05:54:40;6.45;;;1.85;;
74245;SDS011;62601;51.044;13.788;2024-01-27T05:57:00;7.80;;;1.35;;
74245;SDS011;62601;51.044;13.788;2024-01-27T05:59:20;7.47;;;1.30;;
74245;SDS011;62601;51.044;13.788;2024-01-27T06:01:40;5.53;;;1.90;;
74245;SDS011;62601;51.044;13.788;2024-01-27T06:04:00;12.90;;;3.22;;
74245;SDS011;62601;51.044;13.788;2024-01-27T06:06:20;5.18;;;1.33;;
74245;SDS011;62601;51.044;13.788;2024-01-27T06:08:40;7.10;;;1.30;;
74245;SDS011;62601;51.044;13.788;2024-01-27T06:11:01;7.38;;;1.58;;
74245;SDS011;62601;51.044;13.788;2024-01-27T06:13:21;9.05;;;1.70;;
74245;SDS011;62601;51.044;13.788;2024-01-27T06:15:41;6.22;;;1.67;;
74245;SDS011;62601;51.044;13.788;2024-01-27T06:18:01;8.73;;;2.92;;
74245;SDS011;62601;51.044;13.788;2024-01-27T06:20:21;10.27;;;1.42;;
74245;SDS011;62601;51.044;13.788;2024-01-27T06:22:41;8.40;;;1.55;;
74245;SDS011;62601;51.044;13.788;2024-01-27T06:25:01;8.63;;;1.40;;
74245;SDS011;62601;51.044;13.788;2024-01-27T06:27:21;9.68;;;1.85;;
74245;SDS011;62601;51.044;13.788;2024-01-27T06:29:41;7.10;;;1.98;;
74245;SDS011;62601;51.044;13.788;2024-01-27T06:32:01;12.60;;;1.63;;
74245;SDS011;62601;51.044;13.788;2024-01-27T06:34:22;5.85;;;1.65;;
74245;SDS011;62601;51.044;13.788;2024-01-27T06:36:42;6.30;;;1.20;;
74245;SDS011;62601;51.044;13.788;2024-01-27T06:39:02;12.38;;;2.25;;
74245;SDS011;62601;51.044;13.788;2024-01-27T06:41:22;5.88;;;1.70;;
74245;SDS011;62601;51.044;13.788;2024-01-27T06:43:42;7.45;;;1.80;;
74245;SDS011;62601;51.044;13.788;2024-01-27T06:46:02;8.63;;;1.88;;
74245;SDS011;62601;51.044;13.788;2024-01-27T06:48:22;6.70;;;1.48;;
74245;SDS011;62601;51.044;13.788;2024-01-27T06:50:42;7.60;;;1.77;;
74245;SDS011;62601;51.044;13.788;2024-01-27T06:53:03;6.70;;;1.90;;
74245;SDS011;62601;51.044;13.788;2024-01-27T06:55:23;7.85;;;1.90;;
74245;SDS011;62601;51.044;13.788;2024-01-27T06:57:43;7.18;;;1.67;;
74245;SDS011;62601;51.044;13.788;2024-01-27T07:00:03;5.55;;;2.25;;
74245;SDS011;62601;51.044;13.788;2024-01-27T07:02:24;8.88;;;2.00;;
74245;SDS011;62601;51.044;13.788;2024-01-27T07:04:44;8.20;;;1.45;;
74245;SDS011;62601;51.044;13.788;2024-01-27T07:07:04;7.75;;;2.20;;
74245;SDS011;62601;51.044;13.788;2024-01-27T07:09:24;4.93;;;1.33;;
74245;SDS011;62601;51.044;13.788;2024-01-27T07:11:44;6.07;;;1.88;;
74245;SDS011;62601;51.044;13.788;2024-01-27T07:14:04;7.22;;;2.42;;
74245;SDS011;62601;51.044;13.788;2024-01-27T07:16:24;12.52;;;3.33;;
74245;SDS011;62601;51.044;13.788;2024-01-27T07:18:44;9.50;;;2.10;;
74245;SDS011;62601;51.044;13.788;2024-01-27T07:21:04;7.97;;;1.70;;
74245;SDS011;62601;51.044;13.788;2024-01-27T07:23:24;13.70;;;1.92;;
74245;SDS011;62601;51.044;13.788;2024-01-27T07:25:45;7.93;;;1.73;;
74245;SDS011;62601;51.044;13.788;2024-01-27T07:28:05;7.95;;;2.80;;
74245;SDS011;62601;51.044;13.788;2024-01-27T07:30:25;8.27;;;2.28;;
74245;SDS011;62601;51.044;13.788;2024-01-27T07:32:45;9.23;;;1.73;;
74245;SDS011;62601;51.044;13.788;2024-01-27T07:35:05;8.30;;;2.03;;
74245;SDS011;62601;51.044;13.788;2024-01-27T07:37:25;11.68;;;2.95;;
74245;SDS011;62601;51.044;13.788;2024-01-27T07:39:45;7.82;;;1.90;;
74245;SDS011;62601;51.044;13.788;2024-01-27T07:42:05;11.57;;;2.05;;
74245;SDS011;62601;51.044;13.788;2024-01-27T07:44:26;13.80;;;2.58;;
74245;SDS011;62601;51.044;13.788;2024-01-27T07:46:46;6.40;;;1.73;;
74245;SDS011;62601;51.044;13.788;2024-01-27T07:49:07;13.05;;;2.90;;
74245;SDS011;62601;51.044;13.788;2024-01-27T07:51:27;15.98;;;2.63;;
74245;SDS011;62601;51.044;13.788;2024-01-27T07:53:47;6.35;;;1.90;;
74245;SDS011;62601;51.044;13.788;2024-01-27T07:56:07;9.68;;;2.22;;
74245;SDS011;62601;51.044;13.788;2024-01-27T07:58:27;4.63;;;1.63;;
74245;SDS011;62601;51.044;13.788;2024-01-27T08:00:47;9.15;;;2.00;;
74245;SDS011;62601;51.044;13.788;2024-01-27T08:03:08;10.70;;;2.30;;
74245;SDS011;62601;51.044;13.788;2024-01-27T08:05:28;9.57;;;1.90;;
74245;SDS011;62601;51.044;13.788;2024-01-27T08:07:48;11.23;;;2.70;;
74245;SDS011;62601;51.044;13.788;2024-01-27T08:10:08;11.73;;;2.13;;
74245;SDS011;62601;51.044;13.788;2024-01-27T08:12:28;14.02;;;2.05;;
74245;SDS011;62601;51.044;13.788;2024-01-27T08:14:48;10.50;;;2.50;;
74245;SDS011;62601;51.044;13.788;2024-01-27T08:17:08;7.53;;;2.05;;
74245;SDS011;62601;51.044;13.788;2024-01-27T08:19:28;7.40;;;2.90;;
74245;SDS011;62601;51.044;13.788;2024-01-27T08:21:48;12.45;;;2.45;;
74245;SDS011;62601;51.044;13.788;2024-01-27T08:24:09;9.10;;;2.17;;
74245;SDS011;62601;51.044;13.788;2024-01-27T08:26:29;5.97;;;2.15;;
74245;SDS011;62601;51.044;13.788;2024-01-27T08:28:52;7.68;;;2.42;;
74245;SDS011;62601;51.044;13.788;2024-01-27T08:31:12;5.78;;;2.00;;
74245;SDS011;62601;51.044;13.788;2024-01-27T08:33:32;9.32;;;2.65;;
74245;SDS011;62601;51.044;13.788;2024-01-27T08:35:52;8.55;;;2.30;;
74245;SDS011;62601;51.044;13.788;2024-01-27T08:38:13;8.93;;;1.65;;
74245;SDS011;62601;51.044;13.788;2024-01-27T08:40:33;9.45;;;2.25;;
74245;SDS011;62601;51.044;13.788;2024-01-27T08:42:53;7.57;;;1.67;;
74245;SDS011;62601;51.044;13.788;2024-01-27T08:45:13;7.82;;;1.75;;
74245;SDS011;62601;51.044;13.788;2024-01-27T08:47:33;13.68;;;3.58;;
74245;SDS011;62601;51.044;13.788;2024-01-27T08:49:53;9.60;;;2.47;;
74245;SDS011;62601;51.044;13.788;2024-01-27T08:52:13;10.00;;;2.08;;
74245;SDS011;62601;51.044;13.788;2024-01-27T08:54:34;12.35;;;2.65;;
74245;SDS011;62601;51.044;13.788;2024-01-27T08:56:54;6.85;;;1.75;;
74245;SDS011;62601;51.044;13.788;2024-01-27T08:59:14;11.20;;;2.50;;
74245;SDS011;62601;51.044;13.788;2024-01-27T09:01:34;4.90;;;1.65;;
74245;SDS011;62601;51.044;13.788;2024-01-27T09:03:54;6.97;;;1.80;;
74245;SDS011;62601;51.044;13.788;2024-01-27T09:06:14;9.25;;;2.03;;
74245;SDS011;62601;51.044;13.788;2024-01-27T09:08:34;8.68;;;1.92;;
74245;SDS011;62601;51.044;13.788;2024-01-27T09:10:54;8.52;;;2.40;;
74245;SDS011;62601;51.044;13.788;2024-01-27T09:13:14;16.70;;;4.13;;
74245;SDS011;62601;51.044;13.788;2024-01-27T09:15:34;5.03;;;2.15;;
74245;SDS011;62601;51.044;13.788;2024-01-27T09:17:54;9.18;;;2.70;;
74245;SDS011;62601;51.044;13.788;2024-01-27T09:20:15;9.35;;;2.10;;
74245;SDS011;62601;51.044;13.788;2024-01-27T09:22:35;9.75;;;2.47;;
74245;SDS011;62601;51.044;13.788;2024-01-27T09:24:55;9.23;;;2.20;;
74245;SDS011;62601;51.044;13.788;2024-01-27T09:27:15;8.27;;;2.97;;
74245;SDS011;62601;51.044;13.788;2024-01-27T09:29:35;13.30;;;2.80;;
74245;SDS011;62601;51.044;13.788;2024-01-27T09:31:55;8.32;;;2.15;;
74245;SDS011;62601;51.044;13.788;2024-01-27T09:34:15;4.70;;;2.72;;
74245;SDS011;62601;51.044;13.788;2024-01-27T09:36:35;10.32;;;2.10;;
74245;SDS011;62601;51.044;13.788;2024-01-27T09:38:55;7.18;;;2.17;;
74245;SDS011;62601;51.044;13.788;2024-01-27T09:41:15;8.60;;;2.40;;
74245;SDS011;62601;51.044;13.788;2024-01-27T09:43:36;14.30;;;2.60;;
74245;SDS011;62601;51.044;13.788;2024-01-27T09:45:57;7.72;;;2.40;;
74245;SDS011;62601;51.044;13.788;2024-01-27T09:48:17;7.20;;;2.30;;
74245;SDS011;62601;51.044;13.788;2024-01-27T09:50:39;10.52;;;2.28;;
74245;SDS011;62601;51.044;13.788;2024-01-27T09:53:01;13.00;;;3.50;;
74245;SDS011;62601;51.044;13.788;2024-01-27T09:55:21;11.13;;;4.57;;
74245;SDS011;62601;51.044;13.788;2024-01-27T09:57:41;15.48;;;2.67;;
74245;SDS011;62601;51.044;13.788;2024-01-27T10:00:01;6.88;;;2.20;;
74245;SDS011;62601;51.044;13.788;2024-01-27T10:02:21;14.15;;;2.60;;
74245;SDS011;62601;51.044;13.788;2024-01-27T10:04:43;22.58;;;2.80;;
74245;SDS011;62601;51.044;13.788;2024-01-27T10:07:05;7.30;;;2.15;;
74245;SDS011;62601;51.044;13.788;2024-01-27T10:09:25;13.25;;;2.72;;
74245;SDS011;62601;51.044;13.788;2024-01-27T10:11:46;11.73;;;2.70;;
74245;SDS011;62601;51.044;13.788;2024-01-27T10:14:06;7.35;;;2.30;;
74245;SDS011;62601;51.044;13.788;2024-01-27T10:16:26;8.43;;;2.50;;
74245;SDS011;62601;51.044;13.788;2024-01-27T10:18:46;9.82;;;2.83;;
74245;SDS011;62601;51.044;13.788;2024-01-27T10:21:16;7.18;;;2.45;;
74245;SDS011;62601;51.044;13.788;2024-01-27T10:23:38;8.40;;;2.55;;
74245;SDS011;62601;51.044;13.788;2024-01-27T10:25:58;8.98;;;2.70;;
74245;SDS011;62601;51.044;13.788;2024-01-27T10:28:18;9.75;;;2.17;;
74245;SDS011;62601;51.044;13.788;2024-01-27T10:30:39;12.52;;;3.35;;
74245;SDS011;62601;51.044;13.788;2024-01-27T10:32:59;7.70;;;2.67;;
74245;SDS011;62601;51.044;13.788;2024-01-27T10:35:19;8.82;;;2.65;;
74245;SDS011;62601;51.044;13.788;2024-01-27T10:37:39;12.80;;;3.47;;
74245;SDS011;62601;51.044;13.788;2024-01-27T10:40:07;8.88;;;2.50;;
74245;SDS011;62601;51.044;13.788;2024-01-27T10:42:28;14.23;;;4.72;;
74245;SDS011;62601;51.044;13.788;2024-01-27T10:44:49;14.88;;;3.95;;
74245;SDS011;62601;51.044;13.788;2024-01-27T10:47:11;10.93;;;3.53;;
74245;SDS011;62601;51.044;13.788;2024-01-27T10:49:35;10.77;;;3.10;;
74245;SDS011;62601;51.044;13.788;2024-01-27T10:52:08;8.80;;;2.72;;
74245;SDS011;62601;51.044;13.788;2024-01-27T10:54:32;8.05;;;2.95;;
74245;SDS011;62601;51.044;13.788;2024-01-27T10:56:55;8.73;;;2.80;;
74245;SDS011;62601;51.044;13.788;2024-01-27T10:59:29;8.23;;;2.92;;
74245;SDS011;62601;51.044;13.788;2024-01-27T11:01:52;16.73;;;3.13;;
74245;SDS011;62601;51.044;13.788;2024-01-27T11:04:12;10.68;;;3.25;;
74245;SDS011;62601;51.044;13.788;2024-01-27T11:06:34;10.38;;;2.95;;
74245;SDS011;62601;51.044;13.788;2024-01-27T11:08:56;11.45;;;3.75;;
74245;SDS011;62601;51.044;13.788;2024-01-27T11:11:17;15.13;;;3.20;;
74245;SDS011;62601;51.044;13.788;2024-01-27T11:13:40;8.93;;;3.65;;
74245;SDS011;62601;51.044;13.788;2024-01-27T11:16:01;12.45;;;3.53;;
74245;SDS011;62601;51.044;13.788;2024-01-27T11:18:22;13.57;;;3.75;;
74245;SDS011;62601;51.044;13.788;2024-01-27T11:20:45;9.15;;;3.22;;
74245;SDS011;62601;51.044;13.788;2024-01-27T11:23:09;11.38;;;3.08;;
74245;SDS011;62601;51.044;13.788;2024-01-27T11:25:30;15.05;;;3.20;;
74245;SDS011;62601;51.044;13.788;2024-01-27T11:27:55;12.52;;;3.45;;
74245;SDS011;62601;51.044;13.788;2024-01-27T11:30:28;11.38;;;3.35;;
74245;SDS011;62601;51.044;13.788;2024-01-27T11:32:50;12.65;;;3.67;;
74245;SDS011;62601;51.044;13.788;2024-01-27T11:35:14;10.88;;;3.25;;
74245;SDS011;62601;51.044;13.788;2024-01-27T11:37:47;15.15;;;4.38;;
74245;SDS011;62601;51.044;13.788;2024-01-27T11:40:07;4.47;;;2.60;;
74245;SDS011;62601;51.044;13.788;2024-01-27T11:42:28;11.13;;;3.45;;
74245;SDS011;62601;51.044;13.788;2024-01-27T11:44:50;12.75;;;3.55;;
74245;SDS011;62601;51.044;13.788;2024-01-27T11:47:15;6.43;;;2.83;;
74245;SDS011;62601;51.044;13.788;2024-01-27T11:49:53;7.88;;;2.90;;
74245;SDS011;62601;51.044;13.788;2024-01-27T11:52:14;6.05;;;2.95;;
74245;SDS011;62601;51.044;13.788;2024-01-27T11:54:35;8.75;;;2.58;;
74245;SDS011;62601;51.044;13.788;2024-01-27T11:56:57;12.40;;;3.40;;
74245;SDS011;62601;51.044;13.788;2024-01-27T11:59:20;10.13;;;3.00;;
74245;SDS011;62601;51.044;13.788;2024-01-27T12:01:42;9.95;;;3.00;;
74245;SDS011;62601;51.044;13.788;2024-01-27T12:04:04;9.30;;;3.42;;
74245;SDS011;62601;51.044;13.788;2024-01-27T12:06:25;8.52;;;3.00;;
74245;SDS011;62601;51.044;13.788;2024-01-27T12:08:47;10.07;;;3.22;;
74245;SDS011;62601;51.044;13.788;2024-01-27T12:11:11;14.30;;;4.25;;
74245;SDS011;62601;51.044;13.788;2024-01-27T12:13:33;19.42;;;3.40;;
74245;SDS011;62601;51.044;13.788;2024-01-27T12:15:58;9.77;;;2.88;;
74245;SDS011;62601;51.044;13.788;2024-01-27T12:18:19;8.52;;;3.00;;
74245;SDS011;62601;51.044;13.788;2024-01-27T12:20:41;9.25;;;2.70;;
74245;SDS011;62601;51.044;13.788;2024-01-27T12:23:04;14.07;;;3.13;;
74245;SDS011;62601;51.044;13.788;2024-01-27T12:25:24;11.50;;;2.85;;
74245;SDS011;62601;51.044;13.788;2024-01-27T12:27:46;5.70;;;2.25;;
74245;SDS011;62601;51.044;13.788;2024-01-27T12:30:09;8.73;;;2.50;;
74245;SDS011;62601;51.044;13.788;2024-01-27T12:32:31;10.63;;;2.97;;
74245;SDS011;62601;51.044;13.788;2024-01-27T12:34:52;9.57;;;2.90;;
74245;SDS011;62601;51.044;13.788;2024-01-27T12:37:13;9.77;;;3.08;;
74245;SDS011;62601;51.044;13.788;2024-01-27T12:39:35;11.85;;;3.13;;
74245;SDS011;62601;51.044;13.788;2024-01-27T12:41:55;12.70;;;2.67;;
74245;SDS011;62601;51.044;13.788;2024-01-27T12:44:20;8.95;;;2.80;;
74245;SDS011;62601;51.044;13.788;2024-01-27T12:46:40;10.65;;;2.95;;
74245;SDS011;62601;51.044;13.788;2024-01-27T12:49:02;7.15;;;2.95;;
74245;SDS011;62601;51.044;13.788;2024-01-27T12:51:23;16.83;;;3.78;;
74245;SDS011;62601;51.044;13.788;2024-01-27T12:53:45;7.72;;;2.60;;
74245;SDS011;62601;51.044;13.788;2024-01-27T12:56:06;10.57;;;2.83;;
74245;SDS011;62601;51.044;13.788;2024-01-27T12:58:28;6.65;;;3.22;;
74245;SDS011;62601;51.044;13.788;2024-01-27T13:00:49;12.25;;;2.90;;
74245;SDS011;62601;51.044;13.788;2024-01-27T13:03:10;10.40;;;3.40;;
74245;SDS011;62601;51.044;13.788;2024-01-27T13:05:31;7.10;;;3.08;;
74245;SDS011;62601;51.044;13.788;2024-01-27T13:07:53;7.93;;;2.45;;
74245;SDS011;62601;51.044;13.788;2024-01-27T13:10:14;8.88;;;3.95;;
74245;SDS011;62601;51.044;13.788;2024-01-27T13:12:35;10.23;;;2.42;;
74245;SDS011;62601;51.044;13.788;2024-01-27T13:14:57;10.13;;;2.97;;
74245;SDS011;62601;51.044;13.788;2024-01-27T13:17:18;6.95;;;2.35;;
74245;SDS011;62601;51.044;13.788;2024-01-27T13:19:40;5.57;;;2.60;;
74245;SDS011;62601;51.044;13.788;2024-01-27T13:22:01;8.88;;;2.17;;
74245;SDS011;62601;51.044;13.788;2024-01-27T13:24:23;13.45;;;5.80;;
74245;SDS011;62601;51.044;13.788;2024-01-27T13:26:47;6.90;;;2.90;;
74245;SDS011;62601;51.044;13.788;2024-01-27T13:29:09;7.72;;;2.90;;
74245;SDS011;62601;51.044;13.788;2024-01-27T13:31:29;5.85;;;2.10;;
74245;SDS011;62601;51.044;13.788;2024-01-27T13:33:51;5.07;;;1.95;;
74245;SDS011;62601;51.044;13.788;2024-01-27T13:36:12;9.10;;;2.85;;
74245;SDS011;62601;51.044;13.788;2024-01-27T13:38:37;10.48;;;2.40;;
74245;SDS011;62601;51.044;13.788;2024-01-27T13:40:58;12.27;;;2.85;;
74245;SDS011;62601;51.044;13.788;2024-01-27T13:43:19;11.13;;;2.47;;
74245;SDS011;62601;51.044;13.788;2024-01-27T13:45:41;7.22;;;2.42;;
74245;SDS011;62601;51.044;13.788;2024-01-27T13:48:02;6.75;;;3.10;;
74245;SDS011;62601;51.044;13.788;2024-01-27T13:50:24;10.02;;;3.55;;
74245;SDS011;62601;51.044;13.788;2024-01-27T13:52:44;10.93;;;3.00;;
74245;SDS011;62601;51.044;13.788;2024-01-27T13:55:04;8.35;;;2.67;;